sensor_id;sensor_type;location;lat;lon;timestamp;P1;durP1;ratioP1;P2;durP2;ratioP2
18653;SDS011;9456;47.824;16.228;2022-11-20T00:45:26;22.93;;;14.47;;
18653;SDS011;9456;47.824;16.228;2022-11-20T00:47:56;22.30;;;13.80;;
18653;SDS011;9456;47.824;16.228;2022-11-20T00:50:25;21.43;;;14.17;;
18653;SDS011;9456;47.824;16.228;2022-11-20T00:53:05;23.40;;;15.10;;
18653;SDS011;9456;47.824;16.228;2022-11-20T00:55:38;19.87;;;13.37;;
18653;SDS011;9456;47.824;16.228;2022-11-20T00:58:06;20.03;;;13.87;;
18653;SDS011;9456;47.824;16.228;2022-11-20T01:00:37;21.37;;;14.13;;
18653;SDS011;9456;47.824;16.228;2022-11-20T01:03:06;20.93;;;13.43;;
18653;SDS011;9456;47.824;16.228;2022-11-20T01:05:35;21.30;;;14.40;;
18653;SDS011;9456;47.824;16.228;2022-11-20T01:08:04;23.07;;;14.47;;
18653;SDS011;9456;47.824;16.228;2022-11-20T01:10:33;23.83;;;14.97;;
18653;SDS011;9456;47.824;16.228;2022-11-20T01:13:02;25.17;;;13.97;;
18653;SDS011;9456;47.824;16.228;2022-11-20T01:15:49;22.13;;;13.80;;
18653;SDS011;9456;47.824;16.228;2022-11-20T01:18:19;22.37;;;14.23;;
18653;SDS011;9456;47.824;16.228;2022-11-20T01:21:01;21.50;;;14.37;;
18653;SDS011;9456;47.824;16.228;2022-11-20T01:23:51;20.73;;;13.00;;
18653;SDS011;9456;47.824;16.228;2022-11-20T01:26:23;22.43;;;13.90;;
18653;SDS011;9456;47.824;16.228;2022-11-20T01:29:08;21.30;;;13.70;;
18653;SDS011;9456;47.824;16.228;2022-11-20T01:32:04;20.20;;;13.33;;
18653;SDS011;9456;47.824;16.228;2022-11-20T01:34:45;21.67;;;13.40;;
18653;SDS011;9456;47.824;16.228;2022-11-20T01:37:14;20.97;;;14.20;;
18653;SDS011;9456;47.824;16.228;2022-11-20T01:40:16;21.07;;;13.33;;
18653;SDS011;9456;47.824;16.228;2022-11-20T01:43:31;21.20;;;13.23;;
18653;SDS011;9456;47.824;16.228;2022-11-20T01:46:17;21.17;;;14.07;;
18653;SDS011;9456;47.824;16.228;2022-11-20T02:19:41;22.07;;;14.07;;
18653;SDS011;9456;47.824;16.228;2022-11-20T02:22:27;21.57;;;14.23;;
18653;SDS011;9456;47.824;16.228;2022-11-20T02:49:26;23.50;;;15.13;;
18653;SDS011;9456;47.824;16.228;2022-11-20T02:52:41;24.17;;;15.37;;
18653;SDS011;9456;47.824;16.228;2022-11-20T02:55:36;24.17;;;15.03;;
18653;SDS011;9456;47.824;16.228;2022-11-20T02:58:21;24.17;;;14.80;;
18653;SDS011;9456;47.824;16.228;2022-11-20T03:01:30;22.90;;;14.97;;
18653;SDS011;9456;47.824;16.228;2022-11-20T03:54:59;25.00;;;14.90;;
18653;SDS011;9456;47.824;16.228;2022-11-20T03:57:45;22.83;;;14.70;;
18653;SDS011;9456;47.824;16.228;2022-11-20T04:00:28;21.37;;;14.13;;
18653;SDS011;9456;47.824;16.228;2022-11-20T04:03:10;20.77;;;14.20;;
18653;SDS011;9456;47.824;16.228;2022-11-20T04:06:03;25.67;;;15.87;;
18653;SDS011;9456;47.824;16.228;2022-11-20T04:08:59;22.77;;;15.80;;
18653;SDS011;9456;47.824;16.228;2022-11-20T04:20:44;26.53;;;16.37;;
18653;SDS011;9456;47.824;16.228;2022-11-20T04:23:25;25.87;;;16.30;;
18653;SDS011;9456;47.824;16.228;2022-11-20T04:26:27;24.47;;;15.03;;
18653;SDS011;9456;47.824;16.228;2022-11-20T04:29:11;26.27;;;15.87;;
18653;SDS011;9456;47.824;16.228;2022-11-20T04:31:42;27.40;;;16.33;;
18653;SDS011;9456;47.824;16.228;2022-11-20T04:34:29;27.20;;;16.20;;
18653;SDS011;9456;47.824;16.228;2022-11-20T06:15:26;24.90;;;15.40;;
18653;SDS011;9456;47.824;16.228;2022-11-20T06:17:54;28.20;;;17.47;;
18653;SDS011;9456;47.824;16.228;2022-11-20T06:20:24;29.13;;;17.57;;
18653;SDS011;9456;47.824;16.228;2022-11-20T06:22:52;25.70;;;17.37;;
18653;SDS011;9456;47.824;16.228;2022-11-20T06:25:19;27.03;;;17.33;;
18653;SDS011;9456;47.824;16.228;2022-11-20T06:27:47;27.00;;;16.80;;
18653;SDS011;9456;47.824;16.228;2022-11-20T06:30:15;27.73;;;16.53;;
18653;SDS011;9456;47.824;16.228;2022-11-20T06:32:44;25.57;;;17.30;;
18653;SDS011;9456;47.824;16.228;2022-11-20T06:35:11;27.90;;;17.80;;
18653;SDS011;9456;47.824;16.228;2022-11-20T06:37:39;31.00;;;17.90;;
18653;SDS011;9456;47.824;16.228;2022-11-20T06:40:06;27.97;;;17.00;;
18653;SDS011;9456;47.824;16.228;2022-11-20T06:42:34;29.73;;;17.97;;
18653;SDS011;9456;47.824;16.228;2022-11-20T06:45:01;31.07;;;17.53;;
18653;SDS011;9456;47.824;16.228;2022-11-20T06:47:29;27.13;;;16.67;;
18653;SDS011;9456;47.824;16.228;2022-11-20T06:49:57;27.70;;;17.77;;
18653;SDS011;9456;47.824;16.228;2022-11-20T06:52:25;26.53;;;17.53;;
18653;SDS011;9456;47.824;16.228;2022-11-20T06:54:52;27.73;;;17.97;;
18653;SDS011;9456;47.824;16.228;2022-11-20T06:57:19;29.80;;;16.63;;
18653;SDS011;9456;47.824;16.228;2022-11-20T06:59:47;29.27;;;17.50;;
18653;SDS011;9456;47.824;16.228;2022-11-20T07:02:14;30.90;;;18.90;;
18653;SDS011;9456;47.824;16.228;2022-11-20T07:04:41;30.13;;;18.27;;
18653;SDS011;9456;47.824;16.228;2022-11-20T07:07:10;25.80;;;16.03;;
18653;SDS011;9456;47.824;16.228;2022-11-20T07:09:38;26.60;;;16.63;;
18653;SDS011;9456;47.824;16.228;2022-11-20T07:12:05;26.33;;;16.47;;
18653;SDS011;9456;47.824;16.228;2022-11-20T07:14:33;29.67;;;17.63;;
18653;SDS011;9456;47.824;16.228;2022-11-20T07:17:00;25.00;;;16.20;;
18653;SDS011;9456;47.824;16.228;2022-11-20T07:19:27;26.80;;;15.77;;
18653;SDS011;9456;47.824;16.228;2022-11-20T07:21:55;29.90;;;16.93;;
18653;SDS011;9456;47.824;16.228;2022-11-20T07:24:23;24.70;;;16.23;;
18653;SDS011;9456;47.824;16.228;2022-11-20T07:26:51;24.33;;;15.60;;
18653;SDS011;9456;47.824;16.228;2022-11-20T07:29:18;24.73;;;16.57;;
18653;SDS011;9456;47.824;16.228;2022-11-20T07:31:45;24.57;;;16.50;;
18653;SDS011;9456;47.824;16.228;2022-11-20T07:34:13;24.97;;;16.13;;
18653;SDS011;9456;47.824;16.228;2022-11-20T07:36:40;27.30;;;16.80;;
18653;SDS011;9456;47.824;16.228;2022-11-20T07:39:07;25.30;;;15.83;;
18653;SDS011;9456;47.824;16.228;2022-11-20T07:41:36;25.83;;;15.90;;
18653;SDS011;9456;47.824;16.228;2022-11-20T07:44:09;25.63;;;16.13;;
18653;SDS011;9456;47.824;16.228;2022-11-20T07:46:42;32.57;;;19.30;;
18653;SDS011;9456;47.824;16.228;2022-11-20T07:49:10;27.27;;;18.13;;
18653;SDS011;9456;47.824;16.228;2022-11-20T07:51:37;25.90;;;17.53;;
18653;SDS011;9456;47.824;16.228;2022-11-20T07:54:04;26.97;;;16.40;;
18653;SDS011;9456;47.824;16.228;2022-11-20T07:56:32;27.30;;;16.53;;
18653;SDS011;9456;47.824;16.228;2022-11-20T07:59:01;24.17;;;16.87;;
18653;SDS011;9456;47.824;16.228;2022-11-20T08:01:30;28.07;;;17.33;;
18653;SDS011;9456;47.824;16.228;2022-11-20T08:03:57;30.07;;;18.20;;
18653;SDS011;9456;47.824;16.228;2022-11-20T08:06:25;28.53;;;17.27;;
18653;SDS011;9456;47.824;16.228;2022-11-20T08:08:52;27.53;;;17.13;;
18653;SDS011;9456;47.824;16.228;2022-11-20T08:11:20;26.30;;;16.40;;
18653;SDS011;9456;47.824;16.228;2022-11-20T08:14:06;37.10;;;22.03;;
18653;SDS011;9456;47.824;16.228;2022-11-20T08:16:41;30.73;;;18.77;;
18653;SDS011;9456;47.824;16.228;2022-11-20T08:19:09;29.43;;;17.97;;
18653;SDS011;9456;47.824;16.228;2022-11-20T08:21:36;28.57;;;17.90;;
18653;SDS011;9456;47.824;16.228;2022-11-20T08:24:06;28.97;;;17.83;;
18653;SDS011;9456;47.824;16.228;2022-11-20T08:26:33;27.47;;;17.60;;
18653;SDS011;9456;47.824;16.228;2022-11-20T08:29:02;28.37;;;17.97;;
18653;SDS011;9456;47.824;16.228;2022-11-20T08:31:31;28.30;;;17.73;;
18653;SDS011;9456;47.824;16.228;2022-11-20T08:33:59;27.27;;;16.97;;
18653;SDS011;9456;47.824;16.228;2022-11-20T08:36:26;24.80;;;15.73;;
18653;SDS011;9456;47.824;16.228;2022-11-20T08:38:54;25.07;;;16.67;;
18653;SDS011;9456;47.824;16.228;2022-11-20T08:41:22;22.67;;;16.03;;
18653;SDS011;9456;47.824;16.228;2022-11-20T08:43:50;20.70;;;15.03;;
18653;SDS011;9456;47.824;16.228;2022-11-20T08:46:19;22.73;;;15.60;;
18653;SDS011;9456;47.824;16.228;2022-11-20T08:48:48;23.50;;;16.00;;
18653;SDS011;9456;47.824;16.228;2022-11-20T08:51:16;21.30;;;15.37;;
18653;SDS011;9456;47.824;16.228;2022-11-20T08:53:44;23.10;;;16.23;;
18653;SDS011;9456;47.824;16.228;2022-11-20T08:56:13;22.13;;;15.60;;
18653;SDS011;9456;47.824;16.228;2022-11-20T08:58:40;26.43;;;17.27;;
18653;SDS011;9456;47.824;16.228;2022-11-20T09:01:08;24.70;;;16.53;;
18653;SDS011;9456;47.824;16.228;2022-11-20T09:03:36;24.53;;;17.70;;
18653;SDS011;9456;47.824;16.228;2022-11-20T09:06:05;25.00;;;17.60;;
18653;SDS011;9456;47.824;16.228;2022-11-20T09:08:33;25.37;;;16.67;;
18653;SDS011;9456;47.824;16.228;2022-11-20T09:11:01;22.77;;;16.50;;
18653;SDS011;9456;47.824;16.228;2022-11-20T09:13:29;23.80;;;17.30;;
18653;SDS011;9456;47.824;16.228;2022-11-20T09:15:57;23.60;;;16.73;;
18653;SDS011;9456;47.824;16.228;2022-11-20T09:18:25;23.40;;;17.00;;
18653;SDS011;9456;47.824;16.228;2022-11-20T09:20:55;24.30;;;17.23;;
18653;SDS011;9456;47.824;16.228;2022-11-20T09:23:24;24.03;;;16.77;;
18653;SDS011;9456;47.824;16.228;2022-11-20T09:25:52;23.30;;;16.63;;
18653;SDS011;9456;47.824;16.228;2022-11-20T09:28:20;23.97;;;16.83;;
18653;SDS011;9456;47.824;16.228;2022-11-20T09:30:48;28.47;;;17.80;;
18653;SDS011;9456;47.824;16.228;2022-11-20T09:33:15;24.03;;;17.10;;
18653;SDS011;9456;47.824;16.228;2022-11-20T09:35:43;26.07;;;18.03;;
18653;SDS011;9456;47.824;16.228;2022-11-20T09:38:10;25.20;;;17.03;;
18653;SDS011;9456;47.824;16.228;2022-11-20T09:40:43;23.60;;;16.37;;
18653;SDS011;9456;47.824;16.228;2022-11-20T09:43:12;25.53;;;17.77;;
18653;SDS011;9456;47.824;16.228;2022-11-20T09:45:45;26.33;;;16.87;;
18653;SDS011;9456;47.824;16.228;2022-11-20T09:48:20;25.70;;;17.13;;
18653;SDS011;9456;47.824;16.228;2022-11-20T09:50:50;25.27;;;18.03;;
18653;SDS011;9456;47.824;16.228;2022-11-20T09:53:23;29.17;;;20.33;;
18653;SDS011;9456;47.824;16.228;2022-11-20T09:55:55;25.40;;;18.63;;
18653;SDS011;9456;47.824;16.228;2022-11-20T09:58:25;25.43;;;17.63;;
18653;SDS011;9456;47.824;16.228;2022-11-20T10:00:57;23.60;;;17.33;;
18653;SDS011;9456;47.824;16.228;2022-11-20T10:03:30;31.53;;;22.07;;
18653;SDS011;9456;47.824;16.228;2022-11-20T10:06:00;25.87;;;17.93;;
18653;SDS011;9456;47.824;16.228;2022-11-20T10:08:31;26.43;;;17.47;;
18653;SDS011;9456;47.824;16.228;2022-11-20T10:11:05;24.10;;;16.57;;
18653;SDS011;9456;47.824;16.228;2022-11-20T10:13:37;22.87;;;16.07;;
18653;SDS011;9456;47.824;16.228;2022-11-20T10:16:10;25.70;;;17.33;;
18653;SDS011;9456;47.824;16.228;2022-11-20T10:18:49;27.90;;;17.33;;
18653;SDS011;9456;47.824;16.228;2022-11-20T10:21:23;25.97;;;17.23;;
18653;SDS011;9456;47.824;16.228;2022-11-20T10:24:01;26.40;;;16.47;;
18653;SDS011;9456;47.824;16.228;2022-11-20T10:26:35;25.83;;;16.93;;
18653;SDS011;9456;47.824;16.228;2022-11-20T10:29:07;29.37;;;18.43;;
18653;SDS011;9456;47.824;16.228;2022-11-20T10:31:39;27.93;;;17.93;;
18653;SDS011;9456;47.824;16.228;2022-11-20T10:34:08;28.07;;;17.43;;
18653;SDS011;9456;47.824;16.228;2022-11-20T10:36:41;25.57;;;16.63;;
18653;SDS011;9456;47.824;16.228;2022-11-20T10:39:14;25.83;;;16.07;;
18653;SDS011;9456;47.824;16.228;2022-11-20T10:41:46;25.90;;;17.07;;
18653;SDS011;9456;47.824;16.228;2022-11-20T10:44:17;26.90;;;16.77;;
18653;SDS011;9456;47.824;16.228;2022-11-20T10:47:11;27.10;;;16.73;;
18653;SDS011;9456;47.824;16.228;2022-11-20T10:49:39;26.30;;;17.30;;
18653;SDS011;9456;47.824;16.228;2022-11-20T10:52:09;25.30;;;15.80;;
18653;SDS011;9456;47.824;16.228;2022-11-20T10:54:39;28.47;;;17.80;;
18653;SDS011;9456;47.824;16.228;2022-11-20T10:57:13;26.30;;;17.83;;
18653;SDS011;9456;47.824;16.228;2022-11-20T10:59:48;30.00;;;18.23;;
18653;SDS011;9456;47.824;16.228;2022-11-20T11:02:20;26.27;;;16.53;;
18653;SDS011;9456;47.824;16.228;2022-11-20T11:04:49;26.90;;;16.87;;
18653;SDS011;9456;47.824;16.228;2022-11-20T11:07:17;28.70;;;17.60;;
18653;SDS011;9456;47.824;16.228;2022-11-20T11:09:48;30.10;;;18.47;;
18653;SDS011;9456;47.824;16.228;2022-11-20T11:12:17;28.40;;;17.77;;
18653;SDS011;9456;47.824;16.228;2022-11-20T11:14:46;26.20;;;16.53;;
18653;SDS011;9456;47.824;16.228;2022-11-20T11:17:21;26.33;;;17.40;;
18653;SDS011;9456;47.824;16.228;2022-11-20T11:20:02;29.63;;;17.67;;
18653;SDS011;9456;47.824;16.228;2022-11-20T11:22:31;31.80;;;17.50;;
18653;SDS011;9456;47.824;16.228;2022-11-20T11:24:58;31.17;;;18.33;;
18653;SDS011;9456;47.824;16.228;2022-11-20T11:27:27;30.73;;;18.37;;
18653;SDS011;9456;47.824;16.228;2022-11-20T11:30:02;32.60;;;19.07;;
18653;SDS011;9456;47.824;16.228;2022-11-20T11:32:30;27.67;;;18.13;;
18653;SDS011;9456;47.824;16.228;2022-11-20T11:35:00;28.80;;;18.00;;
18653;SDS011;9456;47.824;16.228;2022-11-20T11:37:29;30.77;;;18.20;;
18653;SDS011;9456;47.824;16.228;2022-11-20T11:39:59;30.77;;;18.57;;
18653;SDS011;9456;47.824;16.228;2022-11-20T11:42:28;50.20;;;26.27;;
18653;SDS011;9456;47.824;16.228;2022-11-20T11:44:56;28.20;;;19.27;;
18653;SDS011;9456;47.824;16.228;2022-11-20T11:47:33;32.03;;;18.77;;
18653;SDS011;9456;47.824;16.228;2022-11-20T11:50:13;30.70;;;19.10;;
18653;SDS011;9456;47.824;16.228;2022-11-20T11:52:42;30.07;;;18.97;;
18653;SDS011;9456;47.824;16.228;2022-11-20T11:55:12;48.90;;;25.80;;
18653;SDS011;9456;47.824;16.228;2022-11-20T11:57:44;30.03;;;19.10;;
18653;SDS011;9456;47.824;16.228;2022-11-20T12:00:15;33.17;;;18.40;;
18653;SDS011;9456;47.824;16.228;2022-11-20T12:02:48;40.10;;;22.17;;
18653;SDS011;9456;47.824;16.228;2022-11-20T12:05:17;45.70;;;24.57;;
18653;SDS011;9456;47.824;16.228;2022-11-20T12:07:46;33.40;;;20.17;;
18653;SDS011;9456;47.824;16.228;2022-11-20T12:10:15;29.67;;;19.07;;
18653;SDS011;9456;47.824;16.228;2022-11-20T12:12:46;34.90;;;21.00;;
18653;SDS011;9456;47.824;16.228;2022-11-20T12:15:18;30.43;;;20.50;;
18653;SDS011;9456;47.824;16.228;2022-11-20T12:17:47;34.53;;;21.83;;
18653;SDS011;9456;47.824;16.228;2022-11-20T12:20:15;34.87;;;21.80;;
18653;SDS011;9456;47.824;16.228;2022-11-20T12:22:44;38.80;;;23.57;;
18653;SDS011;9456;47.824;16.228;2022-11-20T12:25:16;43.13;;;25.93;;
18653;SDS011;9456;47.824;16.228;2022-11-20T12:27:53;33.83;;;21.73;;
18653;SDS011;9456;47.824;16.228;2022-11-20T12:30:22;28.87;;;19.13;;
18653;SDS011;9456;47.824;16.228;2022-11-20T12:35:49;40.27;;;23.80;;
18653;SDS011;9456;47.824;16.228;2022-11-20T12:41:05;27.77;;;18.33;;
18653;SDS011;9456;47.824;16.228;2022-11-20T12:43:41;25.43;;;17.23;;
18653;SDS011;9456;47.824;16.228;2022-11-20T12:46:30;28.87;;;18.57;;
18653;SDS011;9456;47.824;16.228;2022-11-20T12:49:04;29.93;;;19.33;;
18653;SDS011;9456;47.824;16.228;2022-11-20T12:51:37;28.10;;;18.40;;
18653;SDS011;9456;47.824;16.228;2022-11-20T12:54:14;26.13;;;17.67;;
18653;SDS011;9456;47.824;16.228;2022-11-20T12:56:49;30.53;;;19.90;;
18653;SDS011;9456;47.824;16.228;2022-11-20T12:59:23;23.30;;;16.27;;
18653;SDS011;9456;47.824;16.228;2022-11-20T13:01:52;24.53;;;16.63;;
18653;SDS011;9456;47.824;16.228;2022-11-20T13:04:31;22.43;;;15.67;;
18653;SDS011;9456;47.824;16.228;2022-11-20T13:07:01;21.80;;;15.23;;
18653;SDS011;9456;47.824;16.228;2022-11-20T13:09:29;24.57;;;16.37;;
18653;SDS011;9456;47.824;16.228;2022-11-20T13:12:00;22.00;;;15.93;;
18653;SDS011;9456;47.824;16.228;2022-11-20T13:14:31;22.13;;;14.77;;
18653;SDS011;9456;47.824;16.228;2022-11-20T13:17:04;19.60;;;13.70;;
18653;SDS011;9456;47.824;16.228;2022-11-20T13:19:32;23.93;;;16.03;;
18653;SDS011;9456;47.824;16.228;2022-11-20T13:22:00;25.60;;;16.47;;
18653;SDS011;9456;47.824;16.228;2022-11-20T13:24:28;27.00;;;17.93;;
18653;SDS011;9456;47.824;16.228;2022-11-20T13:27:00;23.23;;;16.23;;
18653;SDS011;9456;47.824;16.228;2022-11-20T13:29:27;24.57;;;17.07;;
18653;SDS011;9456;47.824;16.228;2022-11-20T13:32:11;26.43;;;17.50;;
18653;SDS011;9456;47.824;16.228;2022-11-20T13:34:50;30.90;;;19.13;;
18653;SDS011;9456;47.824;16.228;2022-11-20T13:37:24;28.90;;;19.60;;
18653;SDS011;9456;47.824;16.228;2022-11-20T13:39:52;27.20;;;18.53;;
18653;SDS011;9456;47.824;16.228;2022-11-20T13:42:20;26.97;;;17.87;;
18653;SDS011;9456;47.824;16.228;2022-11-20T13:44:52;27.10;;;17.40;;
18653;SDS011;9456;47.824;16.228;2022-11-20T13:47:22;26.70;;;17.93;;
18653;SDS011;9456;47.824;16.228;2022-11-20T13:49:50;26.43;;;17.83;;
18653;SDS011;9456;47.824;16.228;2022-11-20T13:52:28;27.50;;;18.13;;
18653;SDS011;9456;47.824;16.228;2022-11-20T13:55:02;28.53;;;18.23;;
18653;SDS011;9456;47.824;16.228;2022-11-20T13:57:39;26.87;;;18.83;;
18653;SDS011;9456;47.824;16.228;2022-11-20T14:00:10;33.07;;;21.00;;
18653;SDS011;9456;47.824;16.228;2022-11-20T14:02:40;31.53;;;21.10;;
18653;SDS011;9456;47.824;16.228;2022-11-20T14:05:13;31.27;;;21.60;;
18653;SDS011;9456;47.824;16.228;2022-11-20T14:07:44;30.40;;;20.80;;
18653;SDS011;9456;47.824;16.228;2022-11-20T14:10:18;28.73;;;18.73;;
18653;SDS011;9456;47.824;16.228;2022-11-20T14:12:46;28.30;;;18.73;;
18653;SDS011;9456;47.824;16.228;2022-11-20T14:15:23;27.77;;;18.13;;
18653;SDS011;9456;47.824;16.228;2022-11-20T14:17:52;29.37;;;19.23;;
18653;SDS011;9456;47.824;16.228;2022-11-20T14:20:19;28.47;;;20.03;;
18653;SDS011;9456;47.824;16.228;2022-11-20T14:22:50;30.17;;;18.77;;
18653;SDS011;9456;47.824;16.228;2022-11-20T14:25:19;29.03;;;19.90;;
18653;SDS011;9456;47.824;16.228;2022-11-20T14:27:50;29.50;;;19.17;;
18653;SDS011;9456;47.824;16.228;2022-11-20T14:30:19;29.33;;;18.83;;
18653;SDS011;9456;47.824;16.228;2022-11-20T14:32:47;24.23;;;18.30;;
18653;SDS011;9456;47.824;16.228;2022-11-20T14:35:17;28.43;;;18.60;;
18653;SDS011;9456;47.824;16.228;2022-11-20T14:37:46;28.27;;;18.90;;
18653;SDS011;9456;47.824;16.228;2022-11-20T14:40:24;28.67;;;18.83;;
18653;SDS011;9456;47.824;16.228;2022-11-20T14:42:52;32.17;;;19.33;;
18653;SDS011;9456;47.824;16.228;2022-11-20T14:45:19;31.37;;;18.67;;
18653;SDS011;9456;47.824;16.228;2022-11-20T14:47:47;28.93;;;18.27;;
18653;SDS011;9456;47.824;16.228;2022-11-20T14:50:18;28.40;;;18.73;;
18653;SDS011;9456;47.824;16.228;2022-11-20T14:52:53;27.87;;;18.30;;
18653;SDS011;9456;47.824;16.228;2022-11-20T14:55:28;145.40;;;62.23;;
18653;SDS011;9456;47.824;16.228;2022-11-20T14:57:56;83.60;;;39.73;;
18653;SDS011;9456;47.824;16.228;2022-11-20T15:00:24;74.30;;;37.70;;
18653;SDS011;9456;47.824;16.228;2022-11-20T15:02:52;39.50;;;25.83;;
18653;SDS011;9456;47.824;16.228;2022-11-20T15:05:21;33.97;;;22.00;;
18653;SDS011;9456;47.824;16.228;2022-11-20T15:07:50;36.93;;;23.00;;
18653;SDS011;9456;47.824;16.228;2022-11-20T15:10:22;47.87;;;27.70;;
18653;SDS011;9456;47.824;16.228;2022-11-20T15:12:51;49.20;;;27.50;;
18653;SDS011;9456;47.824;16.228;2022-11-20T15:15:20;40.83;;;27.03;;
18653;SDS011;9456;47.824;16.228;2022-11-20T15:17:48;37.53;;;24.83;;
18653;SDS011;9456;47.824;16.228;2022-11-20T15:20:15;42.83;;;26.27;;
18653;SDS011;9456;47.824;16.228;2022-11-20T15:22:45;158.50;;;78.47;;
18653;SDS011;9456;47.824;16.228;2022-11-20T15:25:13;86.67;;;44.17;;
18653;SDS011;9456;47.824;16.228;2022-11-20T15:27:41;107.33;;;55.87;;
18653;SDS011;9456;47.824;16.228;2022-11-20T15:30:12;93.33;;;51.57;;
18653;SDS011;9456;47.824;16.228;2022-11-20T15:32:40;97.47;;;56.20;;
18653;SDS011;9456;47.824;16.228;2022-11-20T15:35:08;71.03;;;42.37;;
18653;SDS011;9456;47.824;16.228;2022-11-20T15:37:37;62.43;;;39.43;;
18653;SDS011;9456;47.824;16.228;2022-11-20T15:40:07;65.53;;;42.63;;
18653;SDS011;9456;47.824;16.228;2022-11-20T15:42:35;62.27;;;38.23;;
18653;SDS011;9456;47.824;16.228;2022-11-20T15:45:02;57.30;;;35.23;;
18653;SDS011;9456;47.824;16.228;2022-11-20T15:47:30;70.03;;;40.97;;
18653;SDS011;9456;47.824;16.228;2022-11-20T15:49:58;53.37;;;35.13;;
18653;SDS011;9456;47.824;16.228;2022-11-20T15:52:26;54.10;;;35.67;;
18653;SDS011;9456;47.824;16.228;2022-11-20T15:54:53;50.87;;;31.17;;
18653;SDS011;9456;47.824;16.228;2022-11-20T15:57:22;45.73;;;30.40;;
18653;SDS011;9456;47.824;16.228;2022-11-20T15:59:50;51.87;;;31.53;;
18653;SDS011;9456;47.824;16.228;2022-11-20T16:02:19;47.87;;;30.77;;
18653;SDS011;9456;47.824;16.228;2022-11-20T16:04:46;53.30;;;32.73;;
18653;SDS011;9456;47.824;16.228;2022-11-20T16:07:14;49.00;;;31.43;;
18653;SDS011;9456;47.824;16.228;2022-11-20T16:09:41;76.00;;;48.93;;
18653;SDS011;9456;47.824;16.228;2022-11-20T16:12:09;76.10;;;45.27;;
18653;SDS011;9456;47.824;16.228;2022-11-20T16:14:59;68.60;;;39.67;;
18653;SDS011;9456;47.824;16.228;2022-11-20T16:17:49;80.30;;;48.67;;
18653;SDS011;9456;47.824;16.228;2022-11-20T16:20:17;71.93;;;45.00;;
18653;SDS011;9456;47.824;16.228;2022-11-20T16:22:45;51.83;;;32.13;;
18653;SDS011;9456;47.824;16.228;2022-11-20T16:25:12;52.43;;;33.50;;
18653;SDS011;9456;47.824;16.228;2022-11-20T16:27:40;51.03;;;32.20;;
18653;SDS011;9456;47.824;16.228;2022-11-20T16:30:09;62.20;;;39.57;;
18653;SDS011;9456;47.824;16.228;2022-11-20T16:32:37;64.37;;;40.23;;
18653;SDS011;9456;47.824;16.228;2022-11-20T16:35:05;80.13;;;43.17;;
18653;SDS011;9456;47.824;16.228;2022-11-20T16:37:33;78.40;;;47.97;;
18653;SDS011;9456;47.824;16.228;2022-11-20T16:40:00;86.07;;;49.17;;
18653;SDS011;9456;47.824;16.228;2022-11-20T16:42:28;143.23;;;78.60;;
18653;SDS011;9456;47.824;16.228;2022-11-20T16:45:00;70.83;;;42.90;;
18653;SDS011;9456;47.824;16.228;2022-11-20T16:47:29;66.80;;;40.33;;
18653;SDS011;9456;47.824;16.228;2022-11-20T16:49:59;82.17;;;47.60;;
18653;SDS011;9456;47.824;16.228;2022-11-20T16:52:26;84.97;;;45.83;;
18653;SDS011;9456;47.824;16.228;2022-11-20T16:54:54;75.73;;;43.40;;
18653;SDS011;9456;47.824;16.228;2022-11-20T16:57:21;113.57;;;58.93;;
18653;SDS011;9456;47.824;16.228;2022-11-20T16:59:48;103.40;;;53.80;;
18653;SDS011;9456;47.824;16.228;2022-11-20T17:02:16;80.83;;;44.17;;
18653;SDS011;9456;47.824;16.228;2022-11-20T17:04:45;79.13;;;44.43;;
18653;SDS011;9456;47.824;16.228;2022-11-20T17:07:12;75.77;;;43.03;;
18653;SDS011;9456;47.824;16.228;2022-11-20T17:09:41;76.93;;;44.97;;
18653;SDS011;9456;47.824;16.228;2022-11-20T17:12:08;77.00;;;43.93;;
18653;SDS011;9456;47.824;16.228;2022-11-20T17:14:36;103.33;;;52.80;;
18653;SDS011;9456;47.824;16.228;2022-11-20T17:17:03;85.07;;;49.37;;
18653;SDS011;9456;47.824;16.228;2022-11-20T17:19:31;82.00;;;48.73;;
18653;SDS011;9456;47.824;16.228;2022-11-20T17:22:01;66.93;;;39.90;;
18653;SDS011;9456;47.824;16.228;2022-11-20T17:24:28;78.43;;;43.40;;
18653;SDS011;9456;47.824;16.228;2022-11-20T17:26:56;71.20;;;41.87;;
18653;SDS011;9456;47.824;16.228;2022-11-20T17:29:23;64.67;;;38.37;;
18653;SDS011;9456;47.824;16.228;2022-11-20T17:31:50;71.07;;;40.13;;
18653;SDS011;9456;47.824;16.228;2022-11-20T17:34:20;65.67;;;37.37;;
18653;SDS011;9456;47.824;16.228;2022-11-20T17:36:47;70.80;;;40.53;;
18653;SDS011;9456;47.824;16.228;2022-11-20T17:39:16;66.23;;;40.07;;
18653;SDS011;9456;47.824;16.228;2022-11-20T17:41:44;67.03;;;37.60;;
18653;SDS011;9456;47.824;16.228;2022-11-20T17:44:32;63.47;;;35.70;;
18653;SDS011;9456;47.824;16.228;2022-11-20T17:47:00;57.07;;;34.00;;
18653;SDS011;9456;47.824;16.228;2022-11-20T17:49:27;73.87;;;39.27;;
18653;SDS011;9456;47.824;16.228;2022-11-20T17:51:55;73.07;;;37.27;;
18653;SDS011;9456;47.824;16.228;2022-11-20T17:54:23;59.60;;;34.07;;
18653;SDS011;9456;47.824;16.228;2022-11-20T17:56:51;61.13;;;33.43;;
18653;SDS011;9456;47.824;16.228;2022-11-20T17:59:36;51.33;;;31.53;;
18653;SDS011;9456;47.824;16.228;2022-11-20T18:02:04;60.97;;;33.50;;
18653;SDS011;9456;47.824;16.228;2022-11-20T18:04:31;57.63;;;33.13;;
18653;SDS011;9456;47.824;16.228;2022-11-20T18:06:59;53.87;;;31.33;;
18653;SDS011;9456;47.824;16.228;2022-11-20T18:09:28;102.53;;;46.80;;
18653;SDS011;9456;47.824;16.228;2022-11-20T18:11:56;57.10;;;31.90;;
18653;SDS011;9456;47.824;16.228;2022-11-20T18:14:23;49.23;;;27.67;;
18653;SDS011;9456;47.824;16.228;2022-11-20T18:17:01;69.83;;;33.63;;
18653;SDS011;9456;47.824;16.228;2022-11-20T18:19:30;109.73;;;48.57;;
18653;SDS011;9456;47.824;16.228;2022-11-20T18:22:00;95.40;;;43.80;;
18653;SDS011;9456;47.824;16.228;2022-11-20T18:24:30;62.97;;;35.57;;
18653;SDS011;9456;47.824;16.228;2022-11-20T18:27:02;61.30;;;32.40;;
18653;SDS011;9456;47.824;16.228;2022-11-20T18:29:30;50.27;;;28.10;;
18653;SDS011;9456;47.824;16.228;2022-11-20T18:31:57;54.63;;;29.43;;
18653;SDS011;9456;47.824;16.228;2022-11-20T18:34:25;52.67;;;28.07;;
18653;SDS011;9456;47.824;16.228;2022-11-20T18:36:52;52.60;;;29.33;;
18653;SDS011;9456;47.824;16.228;2022-11-20T18:39:20;53.07;;;29.43;;
18653;SDS011;9456;47.824;16.228;2022-11-20T18:41:49;47.27;;;26.87;;
18653;SDS011;9456;47.824;16.228;2022-11-20T18:44:35;44.33;;;24.83;;
18653;SDS011;9456;47.824;16.228;2022-11-20T18:47:21;42.40;;;24.43;;
18653;SDS011;9456;47.824;16.228;2022-11-20T18:49:50;44.03;;;26.53;;
18653;SDS011;9456;47.824;16.228;2022-11-20T18:52:21;46.33;;;25.60;;
18653;SDS011;9456;47.824;16.228;2022-11-20T18:54:50;42.57;;;23.93;;
18653;SDS011;9456;47.824;16.228;2022-11-20T18:57:20;42.57;;;24.40;;
18653;SDS011;9456;47.824;16.228;2022-11-20T19:02:59;45.37;;;26.57;;
18653;SDS011;9456;47.824;16.228;2022-11-20T19:05:26;48.13;;;26.87;;
18653;SDS011;9456;47.824;16.228;2022-11-20T19:07:54;102.97;;;48.83;;
18653;SDS011;9456;47.824;16.228;2022-11-20T19:10:21;46.40;;;27.67;;
18653;SDS011;9456;47.824;16.228;2022-11-20T19:12:50;43.33;;;26.47;;